sensor_id;sensor_type;location;lat;lon;timestamp;P1;durP1;ratioP1;P2;durP2;ratioP2
59052;SDS011;44843;44.728;10.396;2024-01-16T00:01:51;52.95;;;27.98;;
59052;SDS011;44843;44.728;10.396;2024-01-16T00:04:16;61.92;;;30.48;;
59052;SDS011;44843;44.728;10.396;2024-01-16T00:06:42;59.03;;;28.67;;
59052;SDS011;44843;44.728;10.396;2024-01-16T00:09:08;57.90;;;28.98;;
59052;SDS011;44843;44.728;10.396;2024-01-16T00:11:39;59.20;;;28.60;;
59052;SDS011;44843;44.728;10.396;2024-01-16T00:14:06;59.33;;;29.10;;
59052;SDS011;44843;44.728;10.396;2024-01-16T00:16:31;55.38;;;28.05;;
59052;SDS011;44843;44.728;10.396;2024-01-16T00:18:56;57.15;;;27.63;;
59052;SDS011;44843;44.728;10.396;2024-01-16T00:21:22;52.22;;;27.48;;
59052;SDS011;44843;44.728;10.396;2024-01-16T00:23:47;49.00;;;25.55;;
59052;SDS011;44843;44.728;10.396;2024-01-16T00:26:19;55.50;;;27.17;;
59052;SDS011;44843;44.728;10.396;2024-01-16T00:28:47;48.90;;;25.88;;
59052;SDS011;44843;44.728;10.396;2024-01-16T00:31:13;49.58;;;25.45;;
59052;SDS011;44843;44.728;10.396;2024-01-16T00:33:39;54.78;;;25.33;;
59052;SDS011;44843;44.728;10.396;2024-01-16T00:36:05;53.38;;;25.88;;
59052;SDS011;44843;44.728;10.396;2024-01-16T00:38:32;56.03;;;26.45;;
59052;SDS011;44843;44.728;10.396;2024-01-16T00:40:58;46.90;;;24.05;;
59052;SDS011;44843;44.728;10.396;2024-01-16T00:43:23;50.45;;;24.45;;
59052;SDS011;44843;44.728;10.396;2024-01-16T00:45:49;46.90;;;25.08;;
59052;SDS011;44843;44.728;10.396;2024-01-16T00:48:14;48.85;;;24.05;;
59052;SDS011;44843;44.728;10.396;2024-01-16T00:50:40;53.13;;;25.30;;
59052;SDS011;44843;44.728;10.396;2024-01-16T00:53:06;47.85;;;24.75;;
59052;SDS011;44843;44.728;10.396;2024-01-16T00:55:31;57.17;;;26.95;;
59052;SDS011;44843;44.728;10.396;2024-01-16T00:57:57;52.03;;;28.50;;
59052;SDS011;44843;44.728;10.396;2024-01-16T01:00:22;53.78;;;27.63;;
59052;SDS011;44843;44.728;10.396;2024-01-16T01:02:48;47.45;;;24.90;;
59052;SDS011;44843;44.728;10.396;2024-01-16T01:05:13;48.58;;;26.60;;
59052;SDS011;44843;44.728;10.396;2024-01-16T01:07:38;54.10;;;26.95;;
59052;SDS011;44843;44.728;10.396;2024-01-16T01:10:04;51.35;;;25.35;;
59052;SDS011;44843;44.728;10.396;2024-01-16T01:12:30;57.50;;;26.92;;
59052;SDS011;44843;44.728;10.396;2024-01-16T01:14:55;51.97;;;24.77;;
59052;SDS011;44843;44.728;10.396;2024-01-16T01:17:21;50.97;;;24.65;;
59052;SDS011;44843;44.728;10.396;2024-01-16T01:19:46;49.25;;;26.65;;
59052;SDS011;44843;44.728;10.396;2024-01-16T01:22:12;53.70;;;25.90;;
59052;SDS011;44843;44.728;10.396;2024-01-16T01:24:37;49.50;;;24.48;;
59052;SDS011;44843;44.728;10.396;2024-01-16T01:27:03;60.88;;;26.67;;
59052;SDS011;44843;44.728;10.396;2024-01-16T01:29:29;53.55;;;26.02;;
59052;SDS011;44843;44.728;10.396;2024-01-16T01:31:54;58.78;;;26.20;;
59052;SDS011;44843;44.728;10.396;2024-01-16T01:34:19;53.35;;;25.63;;
59052;SDS011;44843;44.728;10.396;2024-01-16T01:36:45;55.08;;;25.45;;
59052;SDS011;44843;44.728;10.396;2024-01-16T01:39:10;49.08;;;25.17;;
59052;SDS011;44843;44.728;10.396;2024-01-16T01:41:36;52.33;;;24.90;;
59052;SDS011;44843;44.728;10.396;2024-01-16T01:44:02;58.72;;;26.80;;
59052;SDS011;44843;44.728;10.396;2024-01-16T01:46:27;49.95;;;24.15;;
59052;SDS011;44843;44.728;10.396;2024-01-16T01:48:54;52.13;;;23.58;;
59052;SDS011;44843;44.728;10.396;2024-01-16T01:51:20;49.05;;;24.10;;
59052;SDS011;44843;44.728;10.396;2024-01-16T01:53:46;46.53;;;23.77;;
59052;SDS011;44843;44.728;10.396;2024-01-16T01:56:16;45.38;;;23.67;;
59052;SDS011;44843;44.728;10.396;2024-01-16T01:58:43;41.22;;;22.15;;
59052;SDS011;44843;44.728;10.396;2024-01-16T02:01:11;42.83;;;22.13;;
59052;SDS011;44843;44.728;10.396;2024-01-16T02:03:40;51.92;;;24.35;;
59052;SDS011;44843;44.728;10.396;2024-01-16T02:06:08;42.42;;;23.60;;
59052;SDS011;44843;44.728;10.396;2024-01-16T02:08:34;47.72;;;22.55;;
59052;SDS011;44843;44.728;10.396;2024-01-16T02:11:00;51.22;;;22.25;;
59052;SDS011;44843;44.728;10.396;2024-01-16T02:13:25;46.20;;;21.55;;
59052;SDS011;44843;44.728;10.396;2024-01-16T02:15:51;44.55;;;23.05;;
59052;SDS011;44843;44.728;10.396;2024-01-16T02:18:16;50.03;;;24.52;;
59052;SDS011;44843;44.728;10.396;2024-01-16T02:20:42;44.22;;;22.60;;
59052;SDS011;44843;44.728;10.396;2024-01-16T02:23:08;41.67;;;21.17;;
59052;SDS011;44843;44.728;10.396;2024-01-16T02:25:35;42.03;;;22.08;;
59052;SDS011;44843;44.728;10.396;2024-01-16T02:28:01;51.47;;;23.67;;
59052;SDS011;44843;44.728;10.396;2024-01-16T02:30:27;43.00;;;21.50;;
59052;SDS011;44843;44.728;10.396;2024-01-16T02:32:52;39.08;;;21.48;;
59052;SDS011;44843;44.728;10.396;2024-01-16T02:35:18;39.88;;;21.23;;
59052;SDS011;44843;44.728;10.396;2024-01-16T02:37:43;45.70;;;22.00;;
59052;SDS011;44843;44.728;10.396;2024-01-16T02:40:09;46.10;;;21.27;;
59052;SDS011;44843;44.728;10.396;2024-01-16T02:42:35;44.05;;;19.40;;
59052;SDS011;44843;44.728;10.396;2024-01-16T02:45:02;42.88;;;18.63;;
59052;SDS011;44843;44.728;10.396;2024-01-16T02:47:29;39.65;;;19.67;;
59052;SDS011;44843;44.728;10.396;2024-01-16T02:49:54;38.80;;;21.65;;
59052;SDS011;44843;44.728;10.396;2024-01-16T02:52:20;40.50;;;20.83;;
59052;SDS011;44843;44.728;10.396;2024-01-16T02:54:45;37.30;;;19.75;;
59052;SDS011;44843;44.728;10.396;2024-01-16T02:57:11;35.42;;;18.30;;
59052;SDS011;44843;44.728;10.396;2024-01-16T02:59:36;41.05;;;19.13;;
59052;SDS011;44843;44.728;10.396;2024-01-16T03:02:01;40.47;;;20.45;;
59052;SDS011;44843;44.728;10.396;2024-01-16T03:04:27;36.70;;;19.23;;
59052;SDS011;44843;44.728;10.396;2024-01-16T03:06:53;37.50;;;19.20;;
59052;SDS011;44843;44.728;10.396;2024-01-16T03:09:18;36.75;;;18.65;;
59052;SDS011;44843;44.728;10.396;2024-01-16T03:11:43;41.97;;;19.48;;
59052;SDS011;44843;44.728;10.396;2024-01-16T03:14:09;38.85;;;19.60;;
59052;SDS011;44843;44.728;10.396;2024-01-16T03:16:34;37.83;;;19.02;;
59052;SDS011;44843;44.728;10.396;2024-01-16T03:19:00;37.05;;;19.75;;
59052;SDS011;44843;44.728;10.396;2024-01-16T03:21:26;45.63;;;22.25;;
59052;SDS011;44843;44.728;10.396;2024-01-16T03:23:51;41.38;;;20.63;;
59052;SDS011;44843;44.728;10.396;2024-01-16T03:26:16;39.33;;;19.45;;
59052;SDS011;44843;44.728;10.396;2024-01-16T03:28:42;41.67;;;20.45;;
59052;SDS011;44843;44.728;10.396;2024-01-16T03:31:08;39.65;;;19.08;;
59052;SDS011;44843;44.728;10.396;2024-01-16T03:33:33;41.70;;;19.83;;
59052;SDS011;44843;44.728;10.396;2024-01-16T03:36:00;36.35;;;19.75;;
59052;SDS011;44843;44.728;10.396;2024-01-16T03:38:25;35.13;;;19.25;;
59052;SDS011;44843;44.728;10.396;2024-01-16T03:40:51;43.85;;;19.83;;
59052;SDS011;44843;44.728;10.396;2024-01-16T03:43:17;41.47;;;19.02;;
59052;SDS011;44843;44.728;10.396;2024-01-16T03:45:42;39.40;;;19.25;;
59052;SDS011;44843;44.728;10.396;2024-01-16T03:48:08;44.50;;;20.08;;
59052;SDS011;44843;44.728;10.396;2024-01-16T03:50:34;38.55;;;18.35;;
59052;SDS011;44843;44.728;10.396;2024-01-16T03:53:01;47.40;;;21.70;;
59052;SDS011;44843;44.728;10.396;2024-01-16T03:55:26;41.85;;;20.70;;
59052;SDS011;44843;44.728;10.396;2024-01-16T03:57:52;38.83;;;19.88;;
59052;SDS011;44843;44.728;10.396;2024-01-16T04:00:17;43.00;;;19.35;;
59052;SDS011;44843;44.728;10.396;2024-01-16T04:02:42;34.88;;;17.80;;
59052;SDS011;44843;44.728;10.396;2024-01-16T04:05:08;45.38;;;19.90;;
59052;SDS011;44843;44.728;10.396;2024-01-16T04:07:33;35.92;;;19.30;;
59052;SDS011;44843;44.728;10.396;2024-01-16T04:09:59;40.42;;;19.85;;
59052;SDS011;44843;44.728;10.396;2024-01-16T04:12:24;39.92;;;18.08;;
59052;SDS011;44843;44.728;10.396;2024-01-16T04:14:50;39.53;;;18.67;;
59052;SDS011;44843;44.728;10.396;2024-01-16T04:17:15;41.83;;;20.33;;
59052;SDS011;44843;44.728;10.396;2024-01-16T04:19:40;37.38;;;18.02;;
59052;SDS011;44843;44.728;10.396;2024-01-16T04:22:06;38.47;;;18.90;;
59052;SDS011;44843;44.728;10.396;2024-01-16T04:24:31;36.72;;;17.63;;
59052;SDS011;44843;44.728;10.396;2024-01-16T04:26:57;34.08;;;17.00;;
59052;SDS011;44843;44.728;10.396;2024-01-16T04:29:22;39.15;;;18.88;;
59052;SDS011;44843;44.728;10.396;2024-01-16T04:31:48;37.25;;;17.83;;
59052;SDS011;44843;44.728;10.396;2024-01-16T04:34:13;40.83;;;17.95;;
59052;SDS011;44843;44.728;10.396;2024-01-16T04:36:38;35.10;;;17.83;;
59052;SDS011;44843;44.728;10.396;2024-01-16T04:39:04;32.92;;;17.35;;
59052;SDS011;44843;44.728;10.396;2024-01-16T04:41:29;37.85;;;17.80;;
59052;SDS011;44843;44.728;10.396;2024-01-16T04:43:54;41.13;;;19.48;;
59052;SDS011;44843;44.728;10.396;2024-01-16T04:46:20;33.45;;;17.13;;
59052;SDS011;44843;44.728;10.396;2024-01-16T04:48:45;42.13;;;18.27;;
59052;SDS011;44843;44.728;10.396;2024-01-16T04:51:11;37.38;;;19.35;;
59052;SDS011;44843;44.728;10.396;2024-01-16T04:53:36;34.42;;;17.15;;
59052;SDS011;44843;44.728;10.396;2024-01-16T04:56:02;35.10;;;17.02;;
59052;SDS011;44843;44.728;10.396;2024-01-16T04:58:27;32.03;;;17.00;;
59052;SDS011;44843;44.728;10.396;2024-01-16T05:00:52;37.20;;;17.27;;
59052;SDS011;44843;44.728;10.396;2024-01-16T05:03:18;38.60;;;17.25;;
59052;SDS011;44843;44.728;10.396;2024-01-16T05:05:43;33.40;;;17.33;;
59052;SDS011;44843;44.728;10.396;2024-01-16T05:08:09;45.28;;;20.80;;
59052;SDS011;44843;44.728;10.396;2024-01-16T05:10:34;40.88;;;17.17;;
59052;SDS011;44843;44.728;10.396;2024-01-16T05:12:59;41.13;;;17.90;;
59052;SDS011;44843;44.728;10.396;2024-01-16T05:15:25;42.78;;;18.20;;
59052;SDS011;44843;44.728;10.396;2024-01-16T05:17:51;42.80;;;18.67;;
59052;SDS011;44843;44.728;10.396;2024-01-16T05:20:16;38.42;;;18.95;;
59052;SDS011;44843;44.728;10.396;2024-01-16T05:22:42;36.80;;;16.52;;
59052;SDS011;44843;44.728;10.396;2024-01-16T05:25:07;37.53;;;18.73;;
59052;SDS011;44843;44.728;10.396;2024-01-16T05:27:33;39.90;;;17.95;;
59052;SDS011;44843;44.728;10.396;2024-01-16T05:29:59;39.63;;;16.98;;
59052;SDS011;44843;44.728;10.396;2024-01-16T05:32:25;33.65;;;16.83;;
59052;SDS011;44843;44.728;10.396;2024-01-16T05:34:51;33.63;;;16.52;;
59052;SDS011;44843;44.728;10.396;2024-01-16T05:37:16;37.30;;;17.23;;
59052;SDS011;44843;44.728;10.396;2024-01-16T05:39:42;35.53;;;18.10;;
59052;SDS011;44843;44.728;10.396;2024-01-16T05:42:07;31.92;;;16.15;;
59052;SDS011;44843;44.728;10.396;2024-01-16T05:44:33;33.60;;;15.77;;
59052;SDS011;44843;44.728;10.396;2024-01-16T05:46:58;27.38;;;16.13;;
59052;SDS011;44843;44.728;10.396;2024-01-16T05:49:24;35.75;;;17.20;;
59052;SDS011;44843;44.728;10.396;2024-01-16T05:51:49;32.35;;;15.35;;
59052;SDS011;44843;44.728;10.396;2024-01-16T05:54:14;38.92;;;17.80;;
59052;SDS011;44843;44.728;10.396;2024-01-16T05:56:40;31.70;;;16.75;;
59052;SDS011;44843;44.728;10.396;2024-01-16T05:59:05;34.35;;;16.70;;
59052;SDS011;44843;44.728;10.396;2024-01-16T06:01:32;31.05;;;16.05;;
59052;SDS011;44843;44.728;10.396;2024-01-16T06:03:57;34.28;;;16.35;;
59052;SDS011;44843;44.728;10.396;2024-01-16T06:06:22;33.88;;;17.05;;
59052;SDS011;44843;44.728;10.396;2024-01-16T06:08:48;29.48;;;15.00;;
59052;SDS011;44843;44.728;10.396;2024-01-16T06:11:13;33.88;;;16.75;;
59052;SDS011;44843;44.728;10.396;2024-01-16T06:13:39;32.22;;;16.38;;
59052;SDS011;44843;44.728;10.396;2024-01-16T06:16:07;40.63;;;17.88;;
59052;SDS011;44843;44.728;10.396;2024-01-16T06:18:35;32.50;;;16.70;;
59052;SDS011;44843;44.728;10.396;2024-01-16T06:21:02;30.02;;;15.85;;
59052;SDS011;44843;44.728;10.396;2024-01-16T06:23:28;34.10;;;15.57;;
59052;SDS011;44843;44.728;10.396;2024-01-16T06:25:54;30.63;;;14.80;;
59052;SDS011;44843;44.728;10.396;2024-01-16T06:28:19;36.08;;;16.83;;
59052;SDS011;44843;44.728;10.396;2024-01-16T06:30:44;33.25;;;16.08;;
59052;SDS011;44843;44.728;10.396;2024-01-16T06:33:10;42.60;;;18.33;;
59052;SDS011;44843;44.728;10.396;2024-01-16T06:35:35;43.92;;;21.63;;
59052;SDS011;44843;44.728;10.396;2024-01-16T06:38:01;42.20;;;19.60;;
59052;SDS011;44843;44.728;10.396;2024-01-16T06:42:52;38.28;;;18.65;;
59052;SDS011;44843;44.728;10.396;2024-01-16T06:45:17;37.80;;;17.27;;
59052;SDS011;44843;44.728;10.396;2024-01-16T06:47:44;32.28;;;16.65;;
59052;SDS011;44843;44.728;10.396;2024-01-16T06:50:09;40.28;;;18.65;;
59052;SDS011;44843;44.728;10.396;2024-01-16T06:52:34;31.25;;;15.48;;
59052;SDS011;44843;44.728;10.396;2024-01-16T06:55:00;32.30;;;16.98;;
59052;SDS011;44843;44.728;10.396;2024-01-16T06:57:25;34.63;;;16.83;;
59052;SDS011;44843;44.728;10.396;2024-01-16T06:59:52;36.42;;;17.60;;
59052;SDS011;44843;44.728;10.396;2024-01-16T07:02:17;34.28;;;16.48;;
59052;SDS011;44843;44.728;10.396;2024-01-16T07:04:43;31.58;;;17.02;;
59052;SDS011;44843;44.728;10.396;2024-01-16T07:07:08;38.85;;;18.02;;
59052;SDS011;44843;44.728;10.396;2024-01-16T07:09:33;30.83;;;16.38;;
59052;SDS011;44843;44.728;10.396;2024-01-16T07:11:59;37.35;;;17.40;;
59052;SDS011;44843;44.728;10.396;2024-01-16T07:14:24;33.38;;;16.15;;
59052;SDS011;44843;44.728;10.396;2024-01-16T07:16:50;36.75;;;17.88;;
59052;SDS011;44843;44.728;10.396;2024-01-16T07:19:15;33.95;;;15.65;;
59052;SDS011;44843;44.728;10.396;2024-01-16T07:21:41;34.80;;;19.25;;
59052;SDS011;44843;44.728;10.396;2024-01-16T07:24:06;37.38;;;17.70;;
59052;SDS011;44843;44.728;10.396;2024-01-16T07:26:32;35.25;;;16.88;;
59052;SDS011;44843;44.728;10.396;2024-01-16T07:28:57;42.47;;;16.70;;
59052;SDS011;44843;44.728;10.396;2024-01-16T07:31:23;39.17;;;18.90;;
59052;SDS011;44843;44.728;10.396;2024-01-16T07:33:48;33.80;;;18.15;;
59052;SDS011;44843;44.728;10.396;2024-01-16T07:36:14;42.97;;;18.55;;
59052;SDS011;44843;44.728;10.396;2024-01-16T07:38:40;33.15;;;17.45;;
59052;SDS011;44843;44.728;10.396;2024-01-16T07:41:05;36.90;;;19.85;;
59052;SDS011;44843;44.728;10.396;2024-01-16T07:43:31;32.25;;;17.35;;
59052;SDS011;44843;44.728;10.396;2024-01-16T07:45:56;37.10;;;17.17;;
59052;SDS011;44843;44.728;10.396;2024-01-16T07:48:22;36.78;;;17.98;;
59052;SDS011;44843;44.728;10.396;2024-01-16T07:50:48;39.20;;;19.85;;
59052;SDS011;44843;44.728;10.396;2024-01-16T07:53:13;35.13;;;16.02;;
59052;SDS011;44843;44.728;10.396;2024-01-16T07:55:40;44.58;;;19.80;;
59052;SDS011;44843;44.728;10.396;2024-01-16T07:58:06;39.05;;;20.23;;
59052;SDS011;44843;44.728;10.396;2024-01-16T08:00:31;39.33;;;19.60;;
59052;SDS011;44843;44.728;10.396;2024-01-16T08:02:56;45.90;;;21.75;;
59052;SDS011;44843;44.728;10.396;2024-01-16T08:05:22;43.95;;;23.20;;
59052;SDS011;44843;44.728;10.396;2024-01-16T08:07:50;39.38;;;20.00;;
59052;SDS011;44843;44.728;10.396;2024-01-16T08:10:16;46.03;;;21.75;;
59052;SDS011;44843;44.728;10.396;2024-01-16T08:12:41;42.85;;;23.98;;
59052;SDS011;44843;44.728;10.396;2024-01-16T08:15:07;45.58;;;21.80;;
59052;SDS011;44843;44.728;10.396;2024-01-16T08:17:32;45.35;;;22.23;;
59052;SDS011;44843;44.728;10.396;2024-01-16T08:19:59;41.78;;;21.85;;
59052;SDS011;44843;44.728;10.396;2024-01-16T08:22:24;40.15;;;22.27;;
59052;SDS011;44843;44.728;10.396;2024-01-16T08:24:49;44.78;;;20.65;;
59052;SDS011;44843;44.728;10.396;2024-01-16T08:27:15;42.42;;;21.48;;
59052;SDS011;44843;44.728;10.396;2024-01-16T08:29:41;42.58;;;21.50;;
59052;SDS011;44843;44.728;10.396;2024-01-16T08:32:07;48.08;;;22.13;;
59052;SDS011;44843;44.728;10.396;2024-01-16T08:34:32;41.03;;;19.85;;
59052;SDS011;44843;44.728;10.396;2024-01-16T08:36:58;39.58;;;19.55;;
59052;SDS011;44843;44.728;10.396;2024-01-16T08:39:23;45.38;;;22.13;;
59052;SDS011;44843;44.728;10.396;2024-01-16T08:41:52;42.22;;;21.40;;
59052;SDS011;44843;44.728;10.396;2024-01-16T08:44:19;39.47;;;20.55;;
59052;SDS011;44843;44.728;10.396;2024-01-16T08:46:45;43.80;;;20.08;;
59052;SDS011;44843;44.728;10.396;2024-01-16T08:49:11;38.00;;;19.00;;
59052;SDS011;44843;44.728;10.396;2024-01-16T08:51:36;41.00;;;19.63;;
59052;SDS011;44843;44.728;10.396;2024-01-16T08:54:02;39.95;;;19.70;;
59052;SDS011;44843;44.728;10.396;2024-01-16T08:56:27;43.53;;;19.00;;
59052;SDS011;44843;44.728;10.396;2024-01-16T08:58:53;33.55;;;17.63;;
59052;SDS011;44843;44.728;10.396;2024-01-16T09:01:18;30.48;;;16.65;;
59052;SDS011;44843;44.728;10.396;2024-01-16T09:03:45;31.92;;;17.27;;
59052;SDS011;44843;44.728;10.396;2024-01-16T09:06:12;30.13;;;15.85;;
59052;SDS011;44843;44.728;10.396;2024-01-16T09:08:37;37.50;;;17.08;;
59052;SDS011;44843;44.728;10.396;2024-01-16T09:11:03;34.30;;;16.98;;
59052;SDS011;44843;44.728;10.396;2024-01-16T09:13:28;41.70;;;18.85;;
59052;SDS011;44843;44.728;10.396;2024-01-16T09:15:53;35.97;;;17.70;;
59052;SDS011;44843;44.728;10.396;2024-01-16T09:18:19;31.73;;;17.40;;
59052;SDS011;44843;44.728;10.396;2024-01-16T09:20:44;30.13;;;16.27;;
59052;SDS011;44843;44.728;10.396;2024-01-16T09:23:09;39.10;;;19.08;;
59052;SDS011;44843;44.728;10.396;2024-01-16T09:25:35;35.25;;;19.42;;
59052;SDS011;44843;44.728;10.396;2024-01-16T09:28:01;36.47;;;19.55;;
59052;SDS011;44843;44.728;10.396;2024-01-16T09:30:26;46.20;;;20.35;;
59052;SDS011;44843;44.728;10.396;2024-01-16T09:32:52;46.50;;;23.92;;
59052;SDS011;44843;44.728;10.396;2024-01-16T09:35:17;47.78;;;22.60;;
59052;SDS011;44843;44.728;10.396;2024-01-16T09:37:43;47.00;;;21.73;;
59052;SDS011;44843;44.728;10.396;2024-01-16T09:40:09;54.22;;;25.42;;
59052;SDS011;44843;44.728;10.396;2024-01-16T09:42:35;52.40;;;24.25;;
59052;SDS011;44843;44.728;10.396;2024-01-16T09:45:01;43.75;;;23.40;;
59052;SDS011;44843;44.728;10.396;2024-01-16T09:47:28;48.03;;;23.13;;
59052;SDS011;44843;44.728;10.396;2024-01-16T09:49:57;44.78;;;22.92;;
59052;SDS011;44843;44.728;10.396;2024-01-16T09:52:24;44.85;;;22.35;;
59052;SDS011;44843;44.728;10.396;2024-01-16T09:54:50;54.97;;;23.70;;
59052;SDS011;44843;44.728;10.396;2024-01-16T09:57:15;52.65;;;27.73;;
59052;SDS011;44843;44.728;10.396;2024-01-16T09:59:43;55.38;;;26.88;;
59052;SDS011;44843;44.728;10.396;2024-01-16T10:02:09;58.28;;;28.40;;
59052;SDS011;44843;44.728;10.396;2024-01-16T10:04:37;59.25;;;29.08;;
59052;SDS011;44843;44.728;10.396;2024-01-16T10:07:03;54.95;;;27.10;;
59052;SDS011;44843;44.728;10.396;2024-01-16T10:09:29;54.33;;;27.05;;
59052;SDS011;44843;44.728;10.396;2024-01-16T10:11:55;56.83;;;26.95;;
59052;SDS011;44843;44.728;10.396;2024-01-16T10:14:21;63.17;;;28.55;;
59052;SDS011;44843;44.728;10.396;2024-01-16T10:16:56;55.63;;;25.77;;
59052;SDS011;44843;44.728;10.396;2024-01-16T10:19:23;51.78;;;26.83;;
59052;SDS011;44843;44.728;10.396;2024-01-16T10:21:49;57.58;;;28.20;;
59052;SDS011;44843;44.728;10.396;2024-01-16T10:24:14;61.50;;;30.10;;
59052;SDS011;44843;44.728;10.396;2024-01-16T10:26:39;68.47;;;30.95;;
59052;SDS011;44843;44.728;10.396;2024-01-16T10:29:05;76.18;;;33.58;;
59052;SDS011;44843;44.728;10.396;2024-01-16T10:31:30;70.82;;;34.28;;
59052;SDS011;44843;44.728;10.396;2024-01-16T10:33:56;73.15;;;34.08;;
59052;SDS011;44843;44.728;10.396;2024-01-16T10:36:22;80.13;;;35.72;;
59052;SDS011;44843;44.728;10.396;2024-01-16T10:38:49;69.88;;;35.30;;
59052;SDS011;44843;44.728;10.396;2024-01-16T10:41:22;66.82;;;34.50;;
59052;SDS011;44843;44.728;10.396;2024-01-16T10:43:50;80.07;;;36.92;;
59052;SDS011;44843;44.728;10.396;2024-01-16T10:46:29;68.63;;;34.22;;
59052;SDS011;44843;44.728;10.396;2024-01-16T10:49:03;78.40;;;37.20;;
59052;SDS011;44843;44.728;10.396;2024-01-16T10:51:29;74.35;;;35.65;;
59052;SDS011;44843;44.728;10.396;2024-01-16T10:53:59;74.13;;;37.40;;
59052;SDS011;44843;44.728;10.396;2024-01-16T10:56:30;80.78;;;38.60;;
59052;SDS011;44843;44.728;10.396;2024-01-16T10:59:02;75.85;;;37.75;;
59052;SDS011;44843;44.728;10.396;2024-01-16T11:01:41;79.50;;;38.80;;
59052;SDS011;44843;44.728;10.396;2024-01-16T11:04:10;82.72;;;40.22;;
59052;SDS011;44843;44.728;10.396;2024-01-16T11:06:37;79.32;;;37.90;;
59052;SDS011;44843;44.728;10.396;2024-01-16T11:09:05;75.93;;;36.40;;
59052;SDS011;44843;44.728;10.396;2024-01-16T11:11:32;78.50;;;37.63;;
59052;SDS011;44843;44.728;10.396;2024-01-16T11:13:59;83.22;;;39.00;;
59052;SDS011;44843;44.728;10.396;2024-01-16T11:16:28;77.30;;;37.80;;
59052;SDS011;44843;44.728;10.396;2024-01-16T11:18:55;58.70;;;29.15;;
59052;SDS011;44843;44.728;10.396;2024-01-16T11:21:22;70.20;;;32.97;;
59052;SDS011;44843;44.728;10.396;2024-01-16T11:23:47;61.20;;;31.38;;
59052;SDS011;44843;44.728;10.396;2024-01-16T11:28:54;39.80;;;20.67;;
59052;SDS011;44843;44.728;10.396;2024-01-16T11:31:31;33.95;;;17.40;;
59052;SDS011;44843;44.728;10.396;2024-01-16T11:34:00;33.95;;;17.05;;
59052;SDS011;44843;44.728;10.396;2024-01-16T11:39:27;41.08;;;20.02;;
59052;SDS011;44843;44.728;10.396;2024-01-16T11:47:21;39.53;;;19.45;;
59052;SDS011;44843;44.728;10.396;2024-01-16T11:49:48;32.70;;;17.60;;
59052;SDS011;44843;44.728;10.396;2024-01-16T11:52:38;27.08;;;15.38;;
59052;SDS011;44843;44.728;10.396;2024-01-16T12:00:23;32.28;;;15.82;;
59052;SDS011;44843;44.728;10.396;2024-01-16T12:02:57;33.33;;;15.73;;
59052;SDS011;44843;44.728;10.396;2024-01-16T12:05:28;37.78;;;18.40;;
59052;SDS011;44843;44.728;10.396;2024-01-16T12:07:53;33.08;;;17.02;;
59052;SDS011;44843;44.728;10.396;2024-01-16T12:10:20;38.30;;;20.05;;
59052;SDS011;44843;44.728;10.396;2024-01-16T12:12:48;35.90;;;18.27;;
59052;SDS011;44843;44.728;10.396;2024-01-16T12:15:15;39.42;;;20.13;;
59052;SDS011;44843;44.728;10.396;2024-01-16T12:20:25;38.25;;;19.90;;
59052;SDS011;44843;44.728;10.396;2024-01-16T12:23:02;39.75;;;21.85;;
59052;SDS011;44843;44.728;10.396;2024-01-16T12:25:30;40.30;;;21.63;;
59052;SDS011;44843;44.728;10.396;2024-01-16T12:30:35;46.83;;;22.60;;
59052;SDS011;44843;44.728;10.396;2024-01-16T12:33:10;46.38;;;22.95;;
59052;SDS011;44843;44.728;10.396;2024-01-16T12:35:38;36.33;;;19.75;;
59052;SDS011;44843;44.728;10.396;2024-01-16T12:38:05;39.70;;;20.58;;
59052;SDS011;44843;44.728;10.396;2024-01-16T12:40:34;45.70;;;21.20;;
59052;SDS011;44843;44.728;10.396;2024-01-16T12:43:01;41.88;;;22.15;;
59052;SDS011;44843;44.728;10.396;2024-01-16T12:45:27;37.45;;;20.77;;
59052;SDS011;44843;44.728;10.396;2024-01-16T12:47:54;37.83;;;17.30;;
59052;SDS011;44843;44.728;10.396;2024-01-16T12:50:23;36.75;;;18.13;;
59052;SDS011;44843;44.728;10.396;2024-01-16T12:53:07;37.95;;;19.08;;
59052;SDS011;44843;44.728;10.396;2024-01-16T12:55:35;37.17;;;20.20;;
59052;SDS011;44843;44.728;10.396;2024-01-16T12:58:21;49.03;;;21.38;;
59052;SDS011;44843;44.728;10.396;2024-01-16T13:00:50;40.15;;;19.92;;
59052;SDS011;44843;44.728;10.396;2024-01-16T13:05:43;36.38;;;19.73;;
59052;SDS011;44843;44.728;10.396;2024-01-16T13:08:09;32.22;;;16.90;;
59052;SDS011;44843;44.728;10.396;2024-01-16T13:10:42;34.05;;;17.83;;
59052;SDS011;44843;44.728;10.396;2024-01-16T13:13:11;33.33;;;18.50;;
59052;SDS011;44843;44.728;10.396;2024-01-16T13:15:37;31.90;;;17.40;;
59052;SDS011;44843;44.728;10.396;2024-01-16T13:18:02;28.35;;;17.27;;
59052;SDS011;44843;44.728;10.396;2024-01-16T13:20:28;29.73;;;15.60;;
59052;SDS011;44843;44.728;10.396;2024-01-16T13:22:53;24.98;;;13.48;;
59052;SDS011;44843;44.728;10.396;2024-01-16T13:25:18;27.58;;;13.68;;
59052;SDS011;44843;44.728;10.396;2024-01-16T13:27:44;23.50;;;11.80;;
59052;SDS011;44843;44.728;10.396;2024-01-16T13:30:09;18.60;;;10.57;;
59052;SDS011;44843;44.728;10.396;2024-01-16T13:32:35;23.15;;;12.32;;
59052;SDS011;44843;44.728;10.396;2024-01-16T13:35:01;20.50;;;12.52;;
59052;SDS011;44843;44.728;10.396;2024-01-16T13:37:32;23.83;;;12.40;;
59052;SDS011;44843;44.728;10.396;2024-01-16T13:39:57;25.50;;;13.52;;
59052;SDS011;44843;44.728;10.396;2024-01-16T13:42:23;24.83;;;14.52;;
59052;SDS011;44843;44.728;10.396;2024-01-16T13:44:48;29.13;;;14.93;;
59052;SDS011;44843;44.728;10.396;2024-01-16T13:47:15;28.92;;;15.38;;
59052;SDS011;44843;44.728;10.396;2024-01-16T13:49:41;28.20;;;15.48;;
59052;SDS011;44843;44.728;10.396;2024-01-16T13:52:06;28.50;;;14.98;;
59052;SDS011;44843;44.728;10.396;2024-01-16T13:54:32;26.55;;;14.45;;
59052;SDS011;44843;44.728;10.396;2024-01-16T13:56:57;27.98;;;14.73;;
59052;SDS011;44843;44.728;10.396;2024-01-16T13:59:22;27.77;;;15.10;;
59052;SDS011;44843;44.728;10.396;2024-01-16T14:01:48;24.08;;;14.13;;
59052;SDS011;44843;44.728;10.396;2024-01-16T14:04:13;27.02;;;14.93;;
59052;SDS011;44843;44.728;10.396;2024-01-16T14:06:38;31.73;;;16.63;;
59052;SDS011;44843;44.728;10.396;2024-01-16T14:09:04;28.23;;;14.80;;
59052;SDS011;44843;44.728;10.396;2024-01-16T14:11:32;34.65;;;15.32;;
59052;SDS011;44843;44.728;10.396;2024-01-16T14:13:58;28.63;;;15.00;;
59052;SDS011;44843;44.728;10.396;2024-01-16T14:16:23;31.83;;;17.08;;
59052;SDS011;44843;44.728;10.396;2024-01-16T14:18:49;34.33;;;16.55;;
59052;SDS011;44843;44.728;10.396;2024-01-16T14:21:14;31.15;;;16.08;;
59052;SDS011;44843;44.728;10.396;2024-01-16T14:23:40;28.05;;;15.35;;
59052;SDS011;44843;44.728;10.396;2024-01-16T14:26:05;32.10;;;16.55;;
59052;SDS011;44843;44.728;10.396;2024-01-16T14:28:30;35.40;;;16.40;;
59052;SDS011;44843;44.728;10.396;2024-01-16T14:30:57;29.67;;;15.63;;